sensor_id;sensor_type;location;lat;lon;timestamp;pressure;altitude;pressure_sealevel;temperature;humidity
48630;BME280;34426;52.180;4.462;2022-08-03T00:00:46;150993.22;;;20.24;100.00
48630;BME280;34426;52.180;4.462;2022-08-03T00:03:11;150983.19;;;20.20;100.00
48630;BME280;34426;52.180;4.462;2022-08-03T00:05:38;150975.66;;;20.17;100.00
48630;BME280;34426;52.180;4.462;2022-08-03T00:08:04;150964.34;;;20.13;100.00
48630;BME280;34426;52.180;4.462;2022-08-03T00:10:29;150955.56;;;20.09;100.00
48630;BME280;34426;52.180;4.462;2022-08-03T00:12:55;150946.78;;;20.05;100.00
48630;BME280;34426;52.180;4.462;2022-08-03T00:15:20;150928.00;;;19.98;100.00
48630;BME280;34426;52.180;4.462;2022-08-03T00:17:45;150940.53;;;20.03;100.00
48630;BME280;34426;52.180;4.462;2022-08-03T00:20:11;150934.25;;;20.00;100.00
48630;BME280;34426;52.180;4.462;2022-08-03T00:22:38;150944.31;;;20.04;100.00
48630;BME280;34426;52.180;4.462;2022-08-03T00:25:04;150945.56;;;20.05;100.00
48630;BME280;34426;52.180;4.462;2022-08-03T00:27:29;150940.53;;;20.03;100.00
48630;BME280;34426;52.180;4.462;2022-08-03T00:29:55;150944.31;;;20.04;100.00
48630;BME280;34426;52.180;4.462;2022-08-03T00:32:20;150939.31;;;20.02;100.00
48630;BME280;34426;52.180;4.462;2022-08-03T00:34:46;150936.78;;;20.01;100.00
48630;BME280;34426;52.180;4.462;2022-08-03T00:37:11;150923.00;;;19.96;100.00
48630;BME280;34426;52.180;4.462;2022-08-03T00:39:38;150909.16;;;19.90;100.00
48630;BME280;34426;52.180;4.462;2022-08-03T00:42:04;150897.91;;;19.85;100.00
48630;BME280;34426;52.180;4.462;2022-08-03T00:44:30;150886.59;;;19.81;100.00
48630;BME280;34426;52.180;4.462;2022-08-03T00:46:55;150886.59;;;19.81;100.00
48630;BME280;34426;52.180;4.462;2022-08-03T00:49:21;150867.75;;;19.73;100.00
48630;BME280;34426;52.180;4.462;2022-08-03T00:51:47;150850.16;;;19.66;100.00
48630;BME280;34426;52.180;4.462;2022-08-03T00:54:12;150836.38;;;19.60;100.00
48630;BME280;34426;52.180;4.462;2022-08-03T00:56:40;150831.34;;;19.58;100.00
48630;BME280;34426;52.180;4.462;2022-08-03T00:59:08;150843.91;;;19.63;100.00
48630;BME280;34426;52.180;4.462;2022-08-03T01:01:34;150853.91;;;19.67;100.00
48630;BME280;34426;52.180;4.462;2022-08-03T01:03:59;150853.91;;;19.67;100.00
48630;BME280;34426;52.180;4.462;2022-08-03T01:06:32;150845.16;;;19.64;100.00
48630;BME280;34426;52.180;4.462;2022-08-03T01:09:04;150840.13;;;19.62;100.00
48630;BME280;34426;52.180;4.462;2022-08-03T01:11:46;150837.59;;;19.61;100.00
48630;BME280;34426;52.180;4.462;2022-08-03T01:14:17;150831.34;;;19.58;100.00
48630;BME280;34426;52.180;4.462;2022-08-03T01:16:51;150827.59;;;19.57;100.00
48630;BME280;34426;52.180;4.462;2022-08-03T01:19:40;150820.06;;;19.54;100.00
48630;BME280;34426;52.180;4.462;2022-08-03T01:22:20;150816.28;;;19.52;100.00
48630;BME280;34426;52.180;4.462;2022-08-03T01:24:55;150807.50;;;19.48;100.00
48630;BME280;34426;52.180;4.462;2022-08-03T01:27:28;150798.75;;;19.45;100.00
48630;BME280;34426;52.180;4.462;2022-08-03T01:30:03;150801.28;;;19.46;100.00
48630;BME280;34426;52.180;4.462;2022-08-03T01:32:41;150802.50;;;19.46;100.00
48630;BME280;34426;52.180;4.462;2022-08-03T01:35:13;150778.66;;;19.37;100.00
48630;BME280;34426;52.180;4.462;2022-08-03T01:37:42;150778.66;;;19.37;100.00
48630;BME280;34426;52.180;4.462;2022-08-03T01:40:11;150783.72;;;19.39;100.00
48630;BME280;34426;52.180;4.462;2022-08-03T01:42:39;150774.94;;;19.35;100.00
48630;BME280;34426;52.180;4.462;2022-08-03T01:45:08;150768.66;;;19.32;100.00
48630;BME280;34426;52.180;4.462;2022-08-03T01:47:35;150743.56;;;19.22;100.00
48630;BME280;34426;52.180;4.462;2022-08-03T01:50:03;150734.78;;;19.19;100.00
48630;BME280;34426;52.180;4.462;2022-08-03T01:52:30;150731.03;;;19.17;100.00
48630;BME280;34426;52.180;4.462;2022-08-03T01:54:57;150723.50;;;19.14;100.00
48630;BME280;34426;52.180;4.462;2022-08-03T01:57:24;150716.00;;;19.11;100.00
48630;BME280;34426;52.180;4.462;2022-08-03T01:59:54;150712.25;;;19.09;100.00
48630;BME280;34426;52.180;4.462;2022-08-03T02:02:23;150704.72;;;19.06;100.00
48630;BME280;34426;52.180;4.462;2022-08-03T02:04:49;150672.09;;;18.93;100.00
48630;BME280;34426;52.180;4.462;2022-08-03T02:07:17;150698.41;;;19.04;100.00
48630;BME280;34426;52.180;4.462;2022-08-03T02:09:45;150693.41;;;19.02;100.00
48630;BME280;34426;52.180;4.462;2022-08-03T02:12:13;150689.66;;;19.00;100.00
48630;BME280;34426;52.180;4.462;2022-08-03T02:14:42;150669.56;;;18.92;100.00
48630;BME280;34426;52.180;4.462;2022-08-03T02:17:08;150668.34;;;18.91;100.00
48630;BME280;34426;52.180;4.462;2022-08-03T02:19:36;150678.38;;;18.95;100.00
48630;BME280;34426;52.180;4.462;2022-08-03T02:22:04;150689.66;;;19.00;100.00
48630;BME280;34426;52.180;4.462;2022-08-03T02:24:30;150685.88;;;18.99;100.00
48630;BME280;34426;52.180;4.462;2022-08-03T02:26:57;150675.88;;;18.94;100.00
48630;BME280;34426;52.180;4.462;2022-08-03T02:29:27;150662.09;;;18.89;100.00
48630;BME280;34426;52.180;4.462;2022-08-03T02:31:56;150665.84;;;18.90;100.00
48630;BME280;34426;52.180;4.462;2022-08-03T02:34:26;150648.25;;;18.83;100.00
48630;BME280;34426;52.180;4.462;2022-08-03T02:36:56;150653.31;;;18.85;100.00
48630;BME280;34426;52.180;4.462;2022-08-03T02:39:23;150638.19;;;18.79;100.00
48630;BME280;34426;52.180;4.462;2022-08-03T02:41:51;150638.19;;;18.79;100.00
48630;BME280;34426;52.180;4.462;2022-08-03T02:44:22;150620.66;;;18.72;100.00
48630;BME280;34426;52.180;4.462;2022-08-03T02:47:02;150628.19;;;18.75;100.00
48630;BME280;34426;52.180;4.462;2022-08-03T02:49:30;150620.66;;;18.72;100.00
48630;BME280;34426;52.180;4.462;2022-08-03T02:51:58;150619.41;;;18.71;100.00
48630;BME280;34426;52.180;4.462;2022-08-03T02:54:25;150630.66;;;18.76;100.00
48630;BME280;34426;52.180;4.462;2022-08-03T02:56:53;150634.44;;;18.77;100.00
48630;BME280;34426;52.180;4.462;2022-08-03T02:59:20;150645.78;;;18.82;100.00
48630;BME280;34426;52.180;4.462;2022-08-03T03:01:45;150640.72;;;18.80;100.00
48630;BME280;34426;52.180;4.462;2022-08-03T03:04:11;150645.78;;;18.82;100.00
48630;BME280;34426;52.180;4.462;2022-08-03T03:06:38;150621.91;;;18.72;100.00
48630;BME280;34426;52.180;4.462;2022-08-03T03:09:06;150643.22;;;18.81;100.00
48630;BME280;34426;52.180;4.462;2022-08-03T03:11:35;150652.03;;;18.85;100.00
48630;BME280;34426;52.180;4.462;2022-08-03T03:14:02;150648.25;;;18.83;100.00
48630;BME280;34426;52.180;4.462;2022-08-03T03:16:29;150641.97;;;18.81;100.00
48630;BME280;34426;52.180;4.462;2022-08-03T03:18:56;150629.44;;;18.75;100.00
48630;BME280;34426;52.180;4.462;2022-08-03T03:21:22;150630.66;;;18.76;100.00
48630;BME280;34426;52.180;4.462;2022-08-03T03:23:49;150615.66;;;18.70;100.00
48630;BME280;34426;52.180;4.462;2022-08-03T03:26:16;150613.13;;;18.69;100.00
48630;BME280;34426;52.180;4.462;2022-08-03T03:28:42;150600.59;;;18.64;100.00
48630;BME280;34426;52.180;4.462;2022-08-03T03:31:08;150600.59;;;18.64;100.00
48630;BME280;34426;52.180;4.462;2022-08-03T03:33:34;150586.81;;;18.58;100.00
48630;BME280;34426;52.180;4.462;2022-08-03T03:36:01;150583.06;;;18.56;100.00
48630;BME280;34426;52.180;4.462;2022-08-03T03:38:27;150580.53;;;18.55;100.00
48630;BME280;34426;52.180;4.462;2022-08-03T03:40:54;150581.81;;;18.56;100.00
48630;BME280;34426;52.180;4.462;2022-08-03T03:43:22;150574.28;;;18.53;100.00
48630;BME280;34426;52.180;4.462;2022-08-03T03:45:48;150569.28;;;18.51;100.00
48630;BME280;34426;52.180;4.462;2022-08-03T03:48:14;150565.50;;;18.49;100.00
48630;BME280;34426;52.180;4.462;2022-08-03T03:50:40;150565.50;;;18.49;100.00
48630;BME280;34426;52.180;4.462;2022-08-03T03:53:08;150565.50;;;18.49;100.00
48630;BME280;34426;52.180;4.462;2022-08-03T03:55:33;150555.44;;;18.45;100.00
48630;BME280;34426;52.180;4.462;2022-08-03T03:57:59;150556.75;;;18.46;100.00
48630;BME280;34426;52.180;4.462;2022-08-03T04:00:25;150559.22;;;18.47;100.00
48630;BME280;34426;52.180;4.462;2022-08-03T04:02:51;150564.22;;;18.49;100.00
48630;BME280;34426;52.180;4.462;2022-08-03T04:05:16;150557.97;;;18.46;100.00
48630;BME280;34426;52.180;4.462;2022-08-03T04:07:49;150557.97;;;18.46;100.00
48630;BME280;34426;52.180;4.462;2022-08-03T04:10:22;150546.69;;;18.42;100.00
48630;BME280;34426;52.180;4.462;2022-08-03T04:12:53;150556.75;;;18.46;100.00
48630;BME280;34426;52.180;4.462;2022-08-03T04:15:21;150555.44;;;18.45;100.00
48630;BME280;34426;52.180;4.462;2022-08-03T04:17:51;150545.44;;;18.41;100.00
48630;BME280;34426;52.180;4.462;2022-08-03T04:20:19;150556.75;;;18.46;100.00
48630;BME280;34426;52.180;4.462;2022-08-03T04:22:47;150551.69;;;18.44;100.00
48630;BME280;34426;52.180;4.462;2022-08-03T04:25:15;150544.22;;;18.41;100.00
48630;BME280;34426;52.180;4.462;2022-08-03T04:27:42;150559.22;;;18.47;100.00
48630;BME280;34426;52.180;4.462;2022-08-03T04:30:08;150555.44;;;18.45;100.00
48630;BME280;34426;52.180;4.462;2022-08-03T04:32:36;150560.50;;;18.47;100.00
48630;BME280;34426;52.180;4.462;2022-08-03T04:35:05;150560.50;;;18.47;100.00
48630;BME280;34426;52.180;4.462;2022-08-03T04:37:35;150555.44;;;18.45;100.00
48630;BME280;34426;52.180;4.462;2022-08-03T04:40:06;150564.22;;;18.49;100.00
48630;BME280;34426;52.180;4.462;2022-08-03T04:42:33;150561.75;;;18.48;100.00
48630;BME280;34426;52.180;4.462;2022-08-03T04:45:02;150561.75;;;18.48;100.00
48630;BME280;34426;52.180;4.462;2022-08-03T04:47:30;150555.44;;;18.45;100.00
48630;BME280;34426;52.180;4.462;2022-08-03T04:49:56;150556.75;;;18.46;100.00
48630;BME280;34426;52.180;4.462;2022-08-03T04:52:23;150554.22;;;18.45;100.00
48630;BME280;34426;52.180;4.462;2022-08-03T04:54:49;150560.50;;;18.47;100.00
48630;BME280;34426;52.180;4.462;2022-08-03T04:57:14;150547.97;;;18.42;100.00
48630;BME280;34426;52.180;4.462;2022-08-03T04:59:40;150560.50;;;18.47;100.00
48630;BME280;34426;52.180;4.462;2022-08-03T05:02:05;150559.22;;;18.47;100.00
48630;BME280;34426;52.180;4.462;2022-08-03T05:04:31;150565.50;;;18.49;100.00
48630;BME280;34426;52.180;4.462;2022-08-03T05:06:56;150581.81;;;18.56;100.00
48630;BME280;34426;52.180;4.462;2022-08-03T05:09:23;150588.06;;;18.58;100.00
48630;BME280;34426;52.180;4.462;2022-08-03T05:11:48;150594.34;;;18.61;100.00
48630;BME280;34426;52.180;4.462;2022-08-03T05:14:14;150595.59;;;18.62;100.00
48630;BME280;34426;52.180;4.462;2022-08-03T05:16:39;150614.38;;;18.69;100.00
48630;BME280;34426;52.180;4.462;2022-08-03T05:19:05;150621.91;;;18.72;100.00
48630;BME280;34426;52.180;4.462;2022-08-03T05:21:30;150599.34;;;18.63;100.00
48630;BME280;34426;52.180;4.462;2022-08-03T05:23:56;150603.13;;;18.65;100.00
48630;BME280;34426;52.180;4.462;2022-08-03T05:26:22;150631.97;;;18.76;100.00
48630;BME280;34426;52.180;4.462;2022-08-03T05:28:48;150657.09;;;18.87;100.00
48630;BME280;34426;52.180;4.462;2022-08-03T05:31:13;150674.63;;;18.94;100.00
48630;BME280;34426;52.180;4.462;2022-08-03T05:33:39;150689.66;;;19.00;100.00
48630;BME280;34426;52.180;4.462;2022-08-03T05:36:04;150698.41;;;19.04;100.00
48630;BME280;34426;52.180;4.462;2022-08-03T05:38:30;150719.72;;;19.12;100.00
48630;BME280;34426;52.180;4.462;2022-08-03T05:40:56;150734.78;;;19.19;100.00
48630;BME280;34426;52.180;4.462;2022-08-03T05:43:23;150749.88;;;19.25;100.00
48630;BME280;34426;52.180;4.462;2022-08-03T05:45:49;150756.09;;;19.27;100.00
48630;BME280;34426;52.180;4.462;2022-08-03T05:48:14;150759.88;;;19.29;100.00
48630;BME280;34426;52.180;4.462;2022-08-03T05:50:40;150763.63;;;19.30;100.00
48630;BME280;34426;52.180;4.462;2022-08-03T05:53:05;150768.66;;;19.32;100.00
48630;BME280;34426;52.180;4.462;2022-08-03T05:55:30;150772.41;;;19.34;100.00
48630;BME280;34426;52.180;4.462;2022-08-03T05:57:56;150771.19;;;19.33;100.00
48630;BME280;34426;52.180;4.462;2022-08-03T06:00:23;150774.94;;;19.35;100.00
48630;BME280;34426;52.180;4.462;2022-08-03T06:02:48;150761.13;;;19.29;100.00
48630;BME280;34426;52.180;4.462;2022-08-03T06:05:14;150757.34;;;19.28;100.00
48630;BME280;34426;52.180;4.462;2022-08-03T06:07:39;150756.09;;;19.27;100.00
48630;BME280;34426;52.180;4.462;2022-08-03T06:10:06;150781.19;;;19.38;100.00
48630;BME280;34426;52.180;4.462;2022-08-03T06:12:31;150799.97;;;19.45;100.00
48630;BME280;34426;52.180;4.462;2022-08-03T06:14:57;150827.59;;;19.57;100.00
48630;BME280;34426;52.180;4.462;2022-08-03T06:17:24;150851.44;;;19.66;100.00
48630;BME280;34426;52.180;4.462;2022-08-03T06:19:51;150861.47;;;19.70;100.00
48630;BME280;34426;52.180;4.462;2022-08-03T06:22:16;150882.81;;;19.79;100.00
48630;BME280;34426;52.180;4.462;2022-08-03T06:24:41;150894.13;;;19.84;100.00
48630;BME280;34426;52.180;4.462;2022-08-03T06:27:07;150915.44;;;19.93;100.00
48630;BME280;34426;52.180;4.462;2022-08-03T06:29:32;150956.84;;;20.10;100.00
48630;BME280;34426;52.180;4.462;2022-08-03T06:31:58;150993.22;;;20.24;100.00
48630;BME280;34426;52.180;4.462;2022-08-03T06:34:24;151017.06;;;20.34;100.00
48630;BME280;34426;52.180;4.462;2022-08-03T06:36:50;151042.16;;;20.44;100.00
48630;BME280;34426;52.180;4.462;2022-08-03T06:39:15;151035.88;;;20.42;100.00
48630;BME280;34426;52.180;4.462;2022-08-03T06:41:41;151047.19;;;20.47;100.00
48630;BME280;34426;52.180;4.462;2022-08-03T06:44:06;151032.16;;;20.40;100.00
48630;BME280;34426;52.180;4.462;2022-08-03T06:46:32;151033.38;;;20.41;100.00
48630;BME280;34426;52.180;4.462;2022-08-03T06:48:57;151045.94;;;20.46;100.00
48630;BME280;34426;52.180;4.462;2022-08-03T06:51:24;151054.72;;;20.50;100.00
48630;BME280;34426;52.180;4.462;2022-08-03T06:53:50;151063.50;;;20.53;100.00
48630;BME280;34426;52.180;4.462;2022-08-03T06:56:15;151076.03;;;20.58;100.00
48630;BME280;34426;52.180;4.462;2022-08-03T06:58:40;151071.03;;;20.56;100.00
48630;BME280;34426;52.180;4.462;2022-08-03T07:01:06;151096.19;;;20.67;100.00
48630;BME280;34426;52.180;4.462;2022-08-03T07:03:31;151117.53;;;20.75;100.00
48630;BME280;34426;52.180;4.462;2022-08-03T07:05:57;151112.50;;;20.73;100.00
48630;BME280;34426;52.180;4.462;2022-08-03T07:08:24;151108.75;;;20.72;100.00
48630;BME280;34426;52.180;4.462;2022-08-03T07:10:49;151112.50;;;20.73;100.00
48630;BME280;34426;52.180;4.462;2022-08-03T07:13:14;151121.28;;;20.77;100.00
48630;BME280;34426;52.180;4.462;2022-08-03T07:15:40;151140.09;;;20.85;100.00
48630;BME280;34426;52.180;4.462;2022-08-03T07:18:05;151155.19;;;20.91;100.00
48630;BME280;34426;52.180;4.462;2022-08-03T07:20:31;151186.53;;;21.04;100.00
48630;BME280;34426;52.180;4.462;2022-08-03T07:22:56;151200.31;;;21.09;100.00
48630;BME280;34426;52.180;4.462;2022-08-03T07:25:24;151226.72;;;21.20;100.00
48630;BME280;34426;52.180;4.462;2022-08-03T07:27:49;151235.50;;;21.24;100.00
48630;BME280;34426;52.180;4.462;2022-08-03T07:30:15;151256.84;;;21.32;100.00
48630;BME280;34426;52.180;4.462;2022-08-03T07:32:41;151280.72;;;21.42;100.00
48630;BME280;34426;52.180;4.462;2022-08-03T07:35:08;151298.34;;;21.49;100.00
48630;BME280;34426;52.180;4.462;2022-08-03T07:37:34;151337.25;;;21.65;100.00
48630;BME280;34426;52.180;4.462;2022-08-03T07:40:00;151357.34;;;21.73;100.00
48630;BME280;34426;52.180;4.462;2022-08-03T07:42:28;151343.50;;;21.68;100.00
48630;BME280;34426;52.180;4.462;2022-08-03T07:44:54;151344.78;;;21.68;100.00
48630;BME280;34426;52.180;4.462;2022-08-03T07:47:22;151358.59;;;21.74;100.00
48630;BME280;34426;52.180;4.462;2022-08-03T07:49:47;151371.16;;;21.79;100.00
48630;BME280;34426;52.180;4.462;2022-08-03T07:52:13;151406.31;;;21.93;100.00
48630;BME280;34426;52.180;4.462;2022-08-03T07:54:38;151422.63;;;22.00;100.00
48630;BME280;34426;52.180;4.462;2022-08-03T07:57:04;151443.97;;;22.09;100.00
48630;BME280;34426;52.180;4.462;2022-08-03T07:59:31;151471.63;;;22.20;99.30
48630;BME280;34426;52.180;4.462;2022-08-03T08:01:56;151476.66;;;22.22;98.26
48630;BME280;34426;52.180;4.462;2022-08-03T08:04:22;151500.59;;;22.32;97.36
48630;BME280;34426;52.180;4.462;2022-08-03T08:06:47;151535.75;;;22.46;97.34
48630;BME280;34426;52.180;4.462;2022-08-03T08:09:13;151565.88;;;22.59;95.91
48630;BME280;34426;52.180;4.462;2022-08-03T08:11:39;151577.19;;;22.63;95.43
48630;BME280;34426;52.180;4.462;2022-08-03T08:14:04;151579.69;;;22.64;95.62
48630;BME280;34426;52.180;4.462;2022-08-03T08:16:31;151580.97;;;22.65;95.30
48630;BME280;34426;52.180;4.462;2022-08-03T08:18:56;151596.03;;;22.71;95.20
48630;BME280;34426;52.180;4.462;2022-08-03T08:21:22;151591.00;;;22.69;95.61
48630;BME280;34426;52.180;4.462;2022-08-03T08:23:47;151586.00;;;22.67;94.97
48630;BME280;34426;52.180;4.462;2022-08-03T08:26:13;151570.91;;;22.61;94.59
48630;BME280;34426;52.180;4.462;2022-08-03T08:28:38;151552.06;;;22.53;95.48
48630;BME280;34426;52.180;4.462;2022-08-03T08:31:04;151545.78;;;22.50;94.58
48630;BME280;34426;52.180;4.462;2022-08-03T08:33:31;151536.97;;;22.47;95.29
48630;BME280;34426;52.180;4.462;2022-08-03T08:35:56;151518.16;;;22.39;94.96
48630;BME280;34426;52.180;4.462;2022-08-03T08:38:22;151518.16;;;22.39;95.31
48630;BME280;34426;52.180;4.462;2022-08-03T08:40:47;151538.28;;;22.47;95.89
48630;BME280;34426;52.180;4.462;2022-08-03T08:43:13;151582.22;;;22.65;94.67
48630;BME280;34426;52.180;4.462;2022-08-03T08:45:39;151617.38;;;22.80;93.00
48630;BME280;34426;52.180;4.462;2022-08-03T08:48:06;151622.44;;;22.82;92.79
48630;BME280;34426;52.180;4.462;2022-08-03T08:50:36;151619.91;;;22.81;92.15
48630;BME280;34426;52.180;4.462;2022-08-03T08:53:06;151619.91;;;22.81;92.10
48630;BME280;34426;52.180;4.462;2022-08-03T08:55:33;151614.91;;;22.79;91.77
48630;BME280;34426;52.180;4.462;2022-08-03T08:58:01;151624.94;;;22.83;91.59
48630;BME280;34426;52.180;4.462;2022-08-03T09:00:29;151657.63;;;22.96;90.77
48630;BME280;34426;52.180;4.462;2022-08-03T09:02:54;151685.28;;;23.08;90.70
48630;BME280;34426;52.180;4.462;2022-08-03T09:05:20;151707.94;;;23.17;90.44
48630;BME280;34426;52.180;4.462;2022-08-03T09:07:48;151725.53;;;23.24;88.68
48630;BME280;34426;52.180;4.462;2022-08-03T09:10:15;151769.50;;;23.42;88.21
48630;BME280;34426;52.180;4.462;2022-08-03T09:12:41;151778.28;;;23.46;89.90
48630;BME280;34426;52.180;4.462;2022-08-03T09:15:21;151767.00;;;23.41;91.39
48630;BME280;34426;52.180;4.462;2022-08-03T09:17:47;151739.34;;;23.30;91.26
48630;BME280;34426;52.180;4.462;2022-08-03T09:20:13;151666.41;;;23.00;92.21
48630;BME280;34426;52.180;4.462;2022-08-03T09:22:52;151623.69;;;22.82;93.38
48630;BME280;34426;52.180;4.462;2022-08-03T09:25:18;151629.94;;;22.85;93.71
48630;BME280;34426;52.180;4.462;2022-08-03T09:27:45;151631.25;;;22.85;93.13
48630;BME280;34426;52.180;4.462;2022-08-03T09:30:15;151619.91;;;22.81;92.53
48630;BME280;34426;52.180;4.462;2022-08-03T09:32:41;151629.94;;;22.85;92.90
48630;BME280;34426;52.180;4.462;2022-08-03T09:35:07;151670.19;;;23.01;92.29
48630;BME280;34426;52.180;4.462;2022-08-03T09:37:33;151690.34;;;23.10;92.50
48630;BME280;34426;52.180;4.462;2022-08-03T09:40:00;151701.63;;;23.14;91.30
48630;BME280;34426;52.180;4.462;2022-08-03T09:42:25;151684.03;;;23.07;91.29
48630;BME280;34426;52.180;4.462;2022-08-03T09:44:51;151635.00;;;22.87;92.74
48630;BME280;34426;52.180;4.462;2022-08-03T09:47:28;151656.38;;;22.96;93.24
48630;BME280;34426;52.180;4.462;2022-08-03T09:49:58;151694.13;;;23.11;91.43
48630;BME280;34426;52.180;4.462;2022-08-03T09:52:29;151740.63;;;23.30;90.98
48630;BME280;34426;52.180;4.462;2022-08-03T09:54:55;151774.56;;;23.44;88.65
48630;BME280;34426;52.180;4.462;2022-08-03T09:57:24;151805.97;;;23.57;86.83
48630;BME280;34426;52.180;4.462;2022-08-03T09:59:50;151851.22;;;23.75;86.11
48630;BME280;34426;52.180;4.462;2022-08-03T10:02:22;151905.34;;;23.97;86.88
48630;BME280;34426;52.180;4.462;2022-08-03T10:04:48;151907.84;;;23.98;84.43
48630;BME280;34426;52.180;4.462;2022-08-03T10:07:14;151924.19;;;24.05;83.48
48630;BME280;34426;52.180;4.462;2022-08-03T10:09:52;151931.75;;;24.08;82.41
48630;BME280;34426;52.180;4.462;2022-08-03T10:12:18;151961.91;;;24.21;80.80
48630;BME280;34426;52.180;4.462;2022-08-03T10:14:45;151969.47;;;24.24;79.83
48630;BME280;34426;52.180;4.462;2022-08-03T10:17:11;151939.28;;;24.11;79.35
48630;BME280;34426;52.180;4.462;2022-08-03T10:19:37;151901.56;;;23.96;81.45
48630;BME280;34426;52.180;4.462;2022-08-03T10:22:07;151970.72;;;24.24;82.15
48630;BME280;34426;52.180;4.462;2022-08-03T10:24:35;152000.88;;;24.36;80.42
48630;BME280;34426;52.180;4.462;2022-08-03T10:27:03;152010.97;;;24.41;80.04
48630;BME280;34426;52.180;4.462;2022-08-03T10:29:34;152053.75;;;24.58;79.04
48630;BME280;34426;52.180;4.462;2022-08-03T10:32:03;152119.16;;;24.85;79.01
48630;BME280;34426;52.180;4.462;2022-08-03T10:34:33;152177.03;;;25.08;76.67
48630;BME280;34426;52.180;4.462;2022-08-03T10:37:01;152164.44;;;25.03;76.06
48630;BME280;34426;52.180;4.462;2022-08-03T10:39:29;152179.56;;;25.09;75.19
48630;BME280;34426;52.180;4.462;2022-08-03T10:41:56;152179.56;;;25.09;75.16
48630;BME280;34426;52.180;4.462;2022-08-03T10:44:23;152166.97;;;25.04;78.07
48630;BME280;34426;52.180;4.462;2022-08-03T10:46:51;152140.53;;;24.93;79.73
48630;BME280;34426;52.180;4.462;2022-08-03T10:49:19;152160.66;;;25.02;79.72
48630;BME280;34426;52.180;4.462;2022-08-03T10:51:46;152182.06;;;25.10;80.21
48630;BME280;34426;52.180;4.462;2022-08-03T10:54:36;152204.69;;;25.20;79.44
48630;BME280;34426;52.180;4.462;2022-08-03T10:57:02;152232.44;;;25.31;79.47
48630;BME280;34426;52.180;4.462;2022-08-03T10:59:56;152188.38;;;25.13;79.55
48630;BME280;34426;52.180;4.462;2022-08-03T11:05:43;152179.56;;;25.09;79.43
48630;BME280;34426;52.180;4.462;2022-08-03T11:08:33;152193.38;;;25.15;79.37
48630;BME280;34426;52.180;4.462;2022-08-03T11:11:00;152208.47;;;25.21;79.29
48630;BME280;34426;52.180;4.462;2022-08-03T11:13:27;152218.59;;;25.25;79.47
48630;BME280;34426;52.180;4.462;2022-08-03T11:15:54;152212.25;;;25.23;79.57
48630;BME280;34426;52.180;4.462;2022-08-03T11:18:20;152227.41;;;25.29;78.64
48630;BME280;34426;52.180;4.462;2022-08-03T11:20:49;152200.94;;;25.18;78.70
48630;BME280;34426;52.180;4.462;2022-08-03T11:23:17;152238.75;;;25.34;78.59
48630;BME280;34426;52.180;4.462;2022-08-03T11:26:08;152192.09;;;25.15;78.15
48630;BME280;34426;52.180;4.462;2022-08-03T11:28:34;152164.44;;;25.03;78.65
48630;BME280;34426;52.180;4.462;2022-08-03T11:34:03;152082.72;;;24.70;80.57
48630;BME280;34426;52.180;4.462;2022-08-03T11:39:51;152116.66;;;24.84;79.90
48630;BME280;34426;52.180;4.462;2022-08-03T11:42:39;152148.09;;;24.97;78.76
48630;BME280;34426;52.180;4.462;2022-08-03T11:45:06;152174.50;;;25.07;78.40
48630;BME280;34426;52.180;4.462;2022-08-03T11:47:36;152180.81;;;25.10;77.62
48630;BME280;34426;52.180;4.462;2022-08-03T11:50:02;152158.13;;;25.01;78.11
48630;BME280;34426;52.180;4.462;2022-08-03T11:52:33;152164.44;;;25.03;78.11
48630;BME280;34426;52.180;4.462;2022-08-03T11:54:59;152193.38;;;25.15;77.56
48630;BME280;34426;52.180;4.462;2022-08-03T11:57:27;152207.22;;;25.21;77.62
48630;BME280;34426;52.180;4.462;2022-08-03T11:59:53;152211.00;;;25.22;77.70
48630;BME280;34426;52.180;4.462;2022-08-03T12:02:19;152333.09;;;25.72;76.32
48630;BME280;34426;52.180;4.462;2022-08-03T12:04:51;152357.03;;;25.82;75.56
48630;BME280;34426;52.180;4.462;2022-08-03T12:07:17;152348.16;;;25.78;74.60
48630;BME280;34426;52.180;4.462;2022-08-03T12:10:04;152292.81;;;25.56;76.28
48630;BME280;34426;52.180;4.462;2022-08-03T12:12:30;152306.69;;;25.61;75.39
48630;BME280;34426;52.180;4.462;2022-08-03T12:14:55;152324.28;;;25.68;75.20
48630;BME280;34426;52.180;4.462;2022-08-03T12:17:21;152348.16;;;25.78;74.66
48630;BME280;34426;52.180;4.462;2022-08-03T12:19:46;152387.28;;;25.94;74.00
48630;BME280;34426;52.180;4.462;2022-08-03T12:22:12;152417.47;;;26.07;74.27
48630;BME280;34426;52.180;4.462;2022-08-03T12:24:40;152482.91;;;26.33;72.68
48630;BME280;34426;52.180;4.462;2022-08-03T12:27:07;152525.69;;;26.51;71.91
48630;BME280;34426;52.180;4.462;2022-08-03T12:29:32;152568.59;;;26.68;71.23
48630;BME280;34426;52.180;4.462;2022-08-03T12:31:58;152588.69;;;26.76;70.55
48630;BME280;34426;52.180;4.462;2022-08-03T12:34:23;152624.00;;;26.91;70.61
48630;BME280;34426;52.180;4.462;2022-08-03T12:37:08;152691.97;;;27.19;68.56
48630;BME280;34426;52.180;4.462;2022-08-03T12:39:34;152631.50;;;26.94;68.79
48630;BME280;34426;52.180;4.462;2022-08-03T12:41:59;152629.00;;;26.93;69.07
48630;BME280;34426;52.180;4.462;2022-08-03T12:44:30;152651.66;;;27.02;69.16
48630;BME280;34426;52.180;4.462;2022-08-03T12:46:57;152656.69;;;27.04;69.11
48630;BME280;34426;52.180;4.462;2022-08-03T12:49:23;152550.88;;;26.61;70.35
48630;BME280;34426;52.180;4.462;2022-08-03T12:51:56;152598.81;;;26.81;70.60
48630;BME280;34426;52.180;4.462;2022-08-03T12:54:23;152610.09;;;26.85;70.39